CTR3 weather

Tottenham/Ronan Aerodrome
Tottenham, Ontario, Canada

Public forecast

Using degrees Celsius for public forecast. Weather courtesy of forecast.io.

Closest aviation weather report (METAR) to Tottenham/Ronan Aerodrome

Closest report is CFB Borden, 14.1 nm (26.1 km) NNW. Retrieved 2019/11/20 02:00 UTC (53 minutes ago):

CYBN 200200Z AUTO 00000KT 3/4SM FEW023 OVC070 00/00 A2990 RMK SLP136

Closest aviation forecast (TAF) to Tottenham/Ronan Aerodrome

Closest forecast is CFB Borden, 14.1 nm (26.1 km) NNW. Retrieved 2019-11-20 00:33 UTC (2 hours ago):

TAF TAF CYBN 192330Z 2000/2012 VRB03KT 2SM BR OVC004 TEMPO 2000/2012 P6SM NSW FEW004 BKN012 OVC030 RMK FCST BASED ON AUTO OBS NXT FCST BY 200600Z